Time;durP1;ratioP1;P1;durP2;ratioP2;P2;SDS_P1;SDS_P2;PMS_P1;PMS_P2;Temp;Humidity;BMP_temperature;BMP_pressure;BME280_temperature;BME280_humidity;BME280_pressure;Samples;Min_cycle;Max_cycle;Signal;HPM_P1;HPM_P2
2021/12/04 00:00:13;;;;;;;9.00;5.90;;;2.20;99.90;;;;;;5048254;28;20411;-81
2021/12/04 00:02:39;;;;;;;5.23;4.73;;;2.30;99.90;;;;;;5047819;28;20434;-81
2021/12/04 00:05:07;;;;;;;5.90;4.60;;;2.20;99.90;;;;;;5048378;28;20400;-81
2021/12/04 00:07:35;;;;;;;6.73;4.70;;;2.00;99.90;;;;;;5051167;28;20400;-81
2021/12/04 00:10:03;;;;;;;6.60;5.60;;;2.20;99.90;;;;;;5049813;28;20408;-80
2021/12/04 00:12:31;;;;;;;6.33;4.20;;;2.20;99.90;;;;;;5049599;28;20412;-80
2021/12/04 00:14:57;;;;;;;7.00;4.33;;;2.40;99.90;;;;;;5047519;28;20919;-81
2021/12/04 00:17:24;;;;;;;5.77;5.27;;;2.30;99.90;;;;;;5045558;28;20452;-81
2021/12/04 00:19:50;;;;;;;5.33;4.83;;;2.30;99.90;;;;;;5045426;28;20582;-80
2021/12/04 00:22:16;;;;;;;8.70;6.47;;;2.20;99.90;;;;;;5044420;28;20414;-80
2021/12/04 00:24:42;;;;;;;8.10;5.60;;;2.40;99.90;;;;;;5045764;28;20525;-81
2021/12/04 00:27:08;;;;;;;9.40;6.23;;;2.30;99.90;;;;;;5045557;28;20406;-81
2021/12/04 00:29:34;;;;;;;7.43;5.00;;;2.30;99.90;;;;;;5046182;28;20419;-80
2021/12/04 00:32:04;;;;;;;20.33;5.80;;;2.20;99.90;;;;;;5046275;28;20411;-80
2021/12/04 00:34:32;;;;;;;3.77;3.57;;;2.10;99.90;;;;;;5046829;28;20165;-81
2021/12/04 00:50:41;;;;;;;5.30;4.13;;;2.30;99.90;;;;;;5060381;28;20420;-81
2021/12/04 00:53:06;;;;;;;4.93;3.83;;;2.40;99.90;;;;;;5050479;28;20415;-81
2021/12/04 00:55:32;;;;;;;3.60;3.20;;;2.30;99.90;;;;;;5049813;28;20434;-81
2021/12/04 00:57:58;;;;;;;5.17;4.77;;;2.30;99.90;;;;;;5031397;28;20196;-81
2021/12/04 01:00:24;;;;;;;5.50;4.97;;;2.20;99.90;;;;;;5048873;28;20248;-80
2021/12/04 01:02:49;;;;;;;6.43;5.83;;;2.30;99.90;;;;;;5047220;28;20252;-81
2021/12/04 01:05:15;;;;;;;5.17;4.40;;;2.40;99.90;;;;;;5049473;28;20310;-80
2021/12/04 01:07:41;;;;;;;6.20;4.60;;;2.40;99.90;;;;;;5048866;28;20184;-81
2021/12/04 01:10:09;;;;;;;15.63;6.27;;;2.50;99.90;;;;;;5048637;28;20161;-80
2021/12/04 01:12:35;;;;;;;6.00;4.80;;;2.50;99.90;;;;;;5048959;28;20153;-80
2021/12/04 01:15:02;;;;;;;6.67;5.80;;;2.60;99.90;;;;;;5048053;28;20407;-80
2021/12/04 01:17:27;;;;;;;4.20;3.50;;;2.60;99.90;;;;;;5049034;28;20414;-81
2021/12/04 01:19:53;;;;;;;5.17;4.60;;;2.50;99.90;;;;;;5048895;28;20454;-81
2021/12/04 01:22:21;;;;;;;11.63;5.87;;;2.30;99.90;;;;;;5048716;28;20197;-81
2021/12/04 01:24:48;;;;;;;8.50;6.23;;;2.40;99.90;;;;;;5049449;28;20183;-81
2021/12/04 01:27:14;;;;;;;5.77;4.50;;;2.30;99.90;;;;;;5049056;28;20419;-81
2021/12/04 01:29:41;;;;;;;7.23;4.30;;;2.30;99.90;;;;;;5049189;28;20417;-80
2021/12/04 01:32:09;;;;;;;6.67;5.87;;;2.30;99.90;;;;;;5048971;28;20427;-80
2021/12/04 01:34:35;;;;;;;6.53;3.93;;;2.30;99.90;;;;;;5046739;28;20396;-80
2021/12/04 01:37:02;;;;;;;5.33;4.40;;;2.20;99.90;;;;;;5046691;28;20454;-81
2021/12/04 01:39:28;;;;;;;5.60;3.80;;;2.40;99.90;;;;;;5048682;28;20374;-81
2021/12/04 01:41:54;;;;;;;5.10;4.70;;;2.50;99.90;;;;;;5047750;28;20863;-81
2021/12/04 01:44:20;;;;;;;6.07;3.80;;;2.50;99.90;;;;;;5047268;28;20199;-81
2021/12/04 01:46:46;;;;;;;6.13;4.20;;;2.30;99.90;;;;;;5047295;28;20657;-81
2021/12/04 01:49:12;;;;;;;4.50;3.73;;;2.30;99.90;;;;;;5048742;28;20400;-81
2021/12/04 01:51:38;;;;;;;6.00;4.83;;;2.40;99.90;;;;;;5048176;28;20172;-80
2021/12/04 01:54:04;;;;;;;6.27;5.27;;;2.30;99.90;;;;;;5047569;28;20412;-81
2021/12/04 01:56:33;;;;;;;7.97;5.93;;;2.30;99.90;;;;;;5047794;28;20547;-80
2021/12/04 01:58:59;;;;;;;6.37;5.70;;;2.20;99.90;;;;;;5048296;28;20408;-80
2021/12/04 02:01:25;;;;;;;6.10;5.50;;;2.20;99.90;;;;;;5048227;28;20461;-81
2021/12/04 02:03:51;;;;;;;11.70;7.13;;;2.10;99.90;;;;;;5048490;28;20400;-81
2021/12/04 02:06:17;;;;;;;8.30;5.90;;;1.80;99.90;;;;;;5048447;28;20408;-81
2021/12/04 02:08:43;;;;;;;5.67;4.13;;;1.70;99.90;;;;;;5048363;28;20445;-80
2021/12/04 02:11:10;;;;;;;6.00;3.93;;;1.80;99.90;;;;;;5047795;28;20617;-80
2021/12/04 02:13:36;;;;;;;10.67;6.47;;;1.60;99.90;;;;;;5046424;28;20435;-81
2021/12/04 02:16:20;;;;;;;10.23;4.50;;;1.70;99.90;;;;;;5047683;28;20379;-81
2021/12/04 02:18:49;;;;;;;16.03;4.93;;;1.70;99.90;;;;;;5047606;28;20390;-80
2021/12/04 02:21:15;;;;;;;9.40;6.40;;;1.80;99.90;;;;;;5047608;28;20932;-81
2021/12/04 02:23:41;;;;;;;5.17;3.80;;;1.70;99.90;;;;;;5048169;28;20905;-81
2021/12/04 02:26:07;;;;;;;5.43;4.40;;;1.60;99.90;;;;;;5046195;28;20478;-80
2021/12/04 02:28:34;;;;;;;7.87;5.60;;;1.50;99.90;;;;;;5047913;28;20165;-81
2021/12/04 02:31:00;;;;;;;8.50;5.13;;;1.40;99.90;;;;;;5050464;28;20407;-80
2021/12/04 02:33:25;;;;;;;7.30;5.67;;;1.40;99.90;;;;;;5050053;28;20403;-81
2021/12/04 02:35:54;;;;;;;8.90;6.07;;;1.70;99.90;;;;;;5049875;28;20171;-81
2021/12/04 02:38:23;;;;;;;7.20;6.13;;;1.80;99.90;;;;;;5049713;28;20212;-81
2021/12/04 02:40:51;;;;;;;6.10;4.90;;;1.60;99.90;;;;;;5050027;28;20400;-81
2021/12/04 02:43:16;;;;;;;7.07;5.53;;;1.80;99.90;;;;;;5048146;28;20370;-81
2021/12/04 02:45:43;;;;;;;6.70;5.60;;;1.70;99.90;;;;;;5047474;28;20378;-81
2021/12/04 02:48:10;;;;;;;6.00;4.93;;;1.60;99.90;;;;;;5047035;28;20528;-81
2021/12/04 02:50:36;;;;;;;5.93;4.87;;;1.80;99.90;;;;;;5047632;28;20435;-81
2021/12/04 02:53:02;;;;;;;8.50;5.10;;;1.60;99.90;;;;;;5047658;28;20415;-81
2021/12/04 02:55:27;;;;;;;6.10;3.93;;;1.70;99.90;;;;;;5046845;28;20384;-81
2021/12/04 02:57:53;;;;;;;4.83;4.43;;;1.50;99.90;;;;;;5048030;28;20200;-81
2021/12/04 03:00:22;;;;;;;4.60;4.23;;;1.40;99.90;;;;;;5051961;28;20168;-81
2021/12/04 03:02:48;;;;;;;8.30;5.70;;;1.60;99.90;;;;;;5046386;28;20809;-81
2021/12/04 03:05:21;;;;;;;4.80;4.33;;;1.50;99.90;;;;;;5046252;28;20495;-80
2021/12/04 03:07:47;;;;;;;5.07;4.03;;;1.60;99.90;;;;;;5046366;28;20470;-81
2021/12/04 03:10:13;;;;;;;6.47;5.80;;;1.50;99.90;;;;;;5046774;28;20366;-80
2021/12/04 03:12:41;;;;;;;6.67;5.77;;;1.60;99.90;;;;;;5047081;28;20191;-80
2021/12/04 03:15:07;;;;;;;8.13;5.03;;;1.50;99.90;;;;;;5047086;28;20377;-80
2021/12/04 03:17:34;;;;;;;6.07;4.70;;;1.40;99.90;;;;;;5046697;28;20422;-81
2021/12/04 03:19:59;;;;;;;6.53;4.30;;;1.40;99.90;;;;;;5046659;28;20449;-81
2021/12/04 03:22:26;;;;;;;5.30;4.00;;;1.30;99.90;;;;;;5046553;28;20496;-81
2021/12/04 03:24:54;;;;;;;7.90;4.80;;;1.50;99.90;;;;;;5047362;28;20613;-80
2021/12/04 03:27:20;;;;;;;4.90;3.40;;;1.40;99.90;;;;;;5046479;28;20453;-81
2021/12/04 03:29:50;;;;;;;7.57;6.27;;;1.60;99.90;;;;;;5045109;28;20499;-81
2021/12/04 03:32:36;;;;;;;7.03;5.30;;;1.60;99.90;;;;;;5046599;28;20396;-79
2021/12/04 03:40:37;;;;;;;7.00;6.13;;;1.50;99.90;;;;;;5048461;28;20385;-80
2021/12/04 03:43:08;;;;;;;6.10;4.87;;;1.50;99.90;;;;;;5055766;28;20427;-80
2021/12/04 03:45:37;;;;;;;8.03;5.10;;;1.70;99.90;;;;;;5037847;28;20508;-82
2021/12/04 03:48:08;;;;;;;6.60;4.63;;;1.40;99.90;;;;;;5045856;28;20392;-81
2021/12/04 03:50:35;;;;;;;7.40;5.37;;;1.50;99.90;;;;;;5045981;28;20410;-81
2021/12/04 03:53:01;;;;;;;7.20;6.10;;;1.50;99.90;;;;;;5044291;28;20378;-81
2021/12/04 03:55:27;;;;;;;11.23;5.53;;;1.60;99.90;;;;;;5044753;28;20429;-81
2021/12/04 03:57:53;;;;;;;6.93;4.70;;;1.40;99.90;;;;;;5045522;28;20450;-81
2021/12/04 04:00:19;;;;;;;7.00;6.30;;;1.40;99.90;;;;;;5045290;28;20157;-81
2021/12/04 04:02:46;;;;;;;6.90;3.97;;;1.30;99.90;;;;;;5045544;28;20424;-81
2021/12/04 04:05:12;;;;;;;10.50;5.93;;;1.70;99.90;;;;;;5045009;28;20423;-81
2021/12/04 04:07:40;;;;;;;11.07;7.10;;;1.60;99.90;;;;;;5045785;28;20465;-81
2021/12/04 04:10:07;;;;;;;8.17;6.23;;;1.50;99.90;;;;;;5045917;28;20395;-81
2021/12/04 04:12:33;;;;;;;6.10;5.47;;;1.40;99.90;;;;;;5045600;28;20161;-81
2021/12/04 04:14:59;;;;;;;9.00;6.00;;;1.50;99.90;;;;;;5044730;28;20434;-81
2021/12/04 04:17:30;;;;;;;7.10;5.20;;;1.50;99.90;;;;;;5027715;28;20199;-81
2021/12/04 04:19:55;;;;;;;10.43;6.03;;;1.50;99.90;;;;;;5044548;28;20259;-81
2021/12/04 04:22:22;;;;;;;8.20;4.90;;;1.50;99.90;;;;;;5044887;28;20525;-81
2021/12/04 04:24:47;;;;;;;8.60;5.83;;;1.60;99.90;;;;;;5045240;28;20169;-82
2021/12/04 04:27:13;;;;;;;12.20;6.30;;;1.50;99.90;;;;;;5010394;28;20417;-81
2021/12/04 04:29:39;;;;;;;7.30;6.40;;;1.60;99.90;;;;;;5045055;28;20215;-80
2021/12/04 04:32:05;;;;;;;9.03;5.23;;;1.60;99.90;;;;;;5043194;28;20199;-81
2021/12/04 04:34:35;;;;;;;6.53;4.60;;;1.50;99.90;;;;;;5044983;28;20172;-81
2021/12/04 04:37:12;;;;;;;7.97;6.57;;;1.70;99.90;;;;;;5044372;28;20470;-80
2021/12/04 04:40:10;;;;;;;5.40;4.70;;;1.80;99.90;;;;;;5045129;28;20485;-81
2021/12/04 04:59:38;;;;;;;8.20;6.63;;;1.40;99.90;;;;;;5065254;28;20507;-81
2021/12/04 05:10:17;;;;;;;7.23;5.50;;;1.30;99.90;;;;;;5065529;28;20421;-81
2021/12/04 05:12:01;;;;;;;7.10;6.30;;;1.50;99.90;;;;;;5066089;28;20415;-81
2021/12/04 05:14:27;;;;;;;6.90;5.37;;;1.50;99.90;;;;;;5067978;28;20917;-81
2021/12/04 05:17:02;;;;;;;8.57;5.90;;;1.40;99.90;;;;;;5070783;28;20442;-81
2021/12/04 05:19:38;;;;;;;7.10;6.33;;;1.30;99.90;;;;;;5069267;28;20314;-81
2021/12/04 05:22:06;;;;;;;5.37;4.70;;;1.40;99.90;;;;;;5068879;28;20454;-81
2021/12/04 05:24:32;;;;;;;8.27;5.07;;;1.50;99.90;;;;;;5068023;28;20388;-81
2021/12/04 05:26:58;;;;;;;10.63;6.83;;;1.80;99.90;;;;;;5071543;28;20410;-81
2021/12/04 05:29:24;;;;;;;5.70;4.57;;;1.60;99.90;;;;;;5071997;28;20373;-81
2021/12/04 05:31:50;;;;;;;4.90;4.27;;;1.50;99.90;;;;;;5068538;28;20458;-81
2021/12/04 05:34:16;;;;;;;8.30;5.60;;;1.60;99.90;;;;;;5068098;28;20191;-81
2021/12/04 05:36:42;;;;;;;7.10;4.67;;;1.70;99.90;;;;;;5068606;28;20445;-80
2021/12/04 05:39:08;;;;;;;6.50;5.13;;;1.60;99.90;;;;;;5067965;28;20764;-81
2021/12/04 05:41:35;;;;;;;8.93;6.13;;;1.70;99.90;;;;;;5068140;28;20402;-81
2021/12/04 05:44:05;;;;;;;7.90;5.00;;;1.60;99.90;;;;;;5068716;28;20167;-81
2021/12/04 05:46:40;;;;;;;12.17;5.80;;;1.50;99.90;;;;;;5068039;28;20376;-80
2021/12/04 05:49:18;;;;;;;7.10;6.53;;;1.70;99.90;;;;;;5068300;28;20405;-81
2021/12/04 05:52:02;;;;;;;6.07;5.50;;;1.40;99.90;;;;;;5068086;28;20506;-81
2021/12/04 05:57:05;;;;;;;18.50;5.40;;;1.50;99.90;;;;;;5068151;28;20425;-80
2021/12/04 05:59:31;;;;;;;7.10;6.10;;;1.50;99.90;;;;;;5068698;28;20395;-81
2021/12/04 06:01:58;;;;;;;5.97;5.37;;;1.50;99.90;;;;;;5068392;28;20427;-81
2021/12/04 06:04:24;;;;;;;9.43;6.07;;;1.60;99.90;;;;;;5068173;28;20395;-81
2021/12/04 06:06:51;;;;;;;6.07;5.00;;;1.50;99.90;;;;;;5068563;28;20395;-81
2021/12/04 06:09:17;;;;;;;7.53;5.40;;;1.60;99.90;;;;;;5068673;28;20414;-81
2021/12/04 06:11:44;;;;;;;6.60;5.77;;;1.70;99.90;;;;;;5071530;28;20403;-78
2021/12/04 06:14:10;;;;;;;8.57;5.37;;;1.70;99.90;;;;;;5068033;28;20400;-80
2021/12/04 06:16:36;;;;;;;6.00;4.33;;;1.60;99.90;;;;;;5067817;28;20482;-80
2021/12/04 06:19:12;;;;;;;6.97;4.23;;;1.60;99.90;;;;;;5065997;28;20211;-80
2021/12/04 06:24:21;;;;;;;5.27;4.73;;;1.50;99.90;;;;;;5068334;28;20378;-80
2021/12/04 06:26:46;;;;;;;8.53;5.20;;;1.60;99.90;;;;;;5067933;28;20874;-81
2021/12/04 06:29:12;;;;;;;7.77;6.23;;;1.50;99.90;;;;;;5049661;28;20174;-81
2021/12/04 06:31:38;;;;;;;9.23;5.40;;;1.50;99.90;;;;;;5067915;28;20464;-80
2021/12/04 06:34:04;;;;;;;11.90;6.63;;;1.60;99.90;;;;;;5070458;28;20247;-80
2021/12/04 06:36:30;;;;;;;8.23;4.63;;;1.60;99.90;;;;;;5075190;28;20186;-80
2021/12/04 06:38:55;;;;;;;7.63;4.97;;;1.50;99.90;;;;;;5080258;28;20212;-81
2021/12/04 06:41:22;;;;;;;5.53;4.97;;;1.50;99.90;;;;;;5074123;28;20201;-81
2021/12/04 06:43:50;;;;;;;5.80;4.93;;;1.60;99.90;;;;;;5071285;28;20369;-81
2021/12/04 06:46:17;;;;;;;8.20;7.20;;;1.40;99.90;;;;;;5067542;28;20398;-80
2021/12/04 06:48:53;;;;;;;14.47;5.63;;;1.40;99.90;;;;;;5067368;28;20377;-80
2021/12/04 06:51:25;;;;;;;7.93;6.50;;;1.50;99.90;;;;;;5066401;28;20398;-81
2021/12/04 06:54:13;;;;;;;6.00;5.40;;;1.50;99.90;;;;;;5067129;28;20438;-81
2021/12/04 06:56:41;;;;;;;6.93;5.57;;;1.40;99.90;;;;;;5066216;28;20472;-81
2021/12/04 06:59:13;;;;;;;8.13;5.40;;;1.40;99.90;;;;;;5067008;28;20394;-81
2021/12/04 07:01:40;;;;;;;12.20;5.87;;;1.50;99.90;;;;;;5066544;28;20484;-81
2021/12/04 07:04:07;;;;;;;15.73;5.13;;;1.60;99.90;;;;;;5067242;28;20377;-80
2021/12/04 07:06:33;;;;;;;7.27;4.83;;;1.60;99.90;;;;;;5067946;28;20437;-81
2021/12/04 07:09:00;;;;;;;5.93;5.37;;;1.60;99.90;;;;;;5067521;28;20407;-81
2021/12/04 07:11:27;;;;;;;8.40;5.20;;;1.60;99.90;;;;;;5068016;28;20643;-81
2021/12/04 07:13:53;;;;;;;6.63;5.30;;;1.60;99.90;;;;;;5070828;28;20406;-81
2021/12/04 07:16:21;;;;;;;8.83;5.63;;;1.60;99.90;;;;;;5065148;28;20399;-81
2021/12/04 07:18:47;;;;;;;5.30;4.03;;;1.60;99.90;;;;;;5066431;28;20395;-81
2021/12/04 07:21:13;;;;;;;5.27;4.73;;;1.60;99.90;;;;;;5065438;28;20434;-81
2021/12/04 07:23:39;;;;;;;4.70;4.20;;;1.60;99.90;;;;;;5064126;28;20830;-81
2021/12/04 07:26:07;;;;;;;6.20;4.50;;;1.90;99.90;;;;;;5065053;28;20486;-80
2021/12/04 07:28:34;;;;;;;4.97;4.50;;;1.80;99.90;;;;;;5065986;28;20199;-80
2021/12/04 07:30:59;;;;;;;7.07;5.50;;;1.60;99.90;;;;;;5065474;28;20385;-81
2021/12/04 07:33:26;;;;;;;5.97;4.50;;;1.60;99.90;;;;;;5066058;28;20469;-81
2021/12/04 07:35:52;;;;;;;5.30;4.10;;;1.80;99.90;;;;;;5063913;28;20490;-80
2021/12/04 07:38:19;;;;;;;7.47;6.23;;;1.70;99.90;;;;;;5065244;28;20470;-81
2021/12/04 07:40:45;;;;;;;4.97;4.57;;;1.80;99.90;;;;;;5065523;28;20377;-79
2021/12/04 07:43:12;;;;;;;7.20;6.40;;;1.90;99.90;;;;;;5065464;28;20451;-80
2021/12/04 07:45:38;;;;;;;5.50;4.93;;;1.90;99.90;;;;;;5065149;28;20545;-80
2021/12/04 07:48:05;;;;;;;6.30;5.00;;;1.80;99.90;;;;;;5064922;28;20830;-81
2021/12/04 07:50:32;;;;;;;8.60;4.47;;;2.00;99.90;;;;;;5065815;28;20403;-80
2021/12/04 07:53:00;;;;;;;7.87;5.20;;;2.20;99.90;;;;;;5063572;28;20455;-80
2021/12/04 07:55:26;;;;;;;7.37;4.87;;;2.00;99.90;;;;;;5028896;28;20492;-80
2021/12/04 07:57:53;;;;;;;5.80;5.23;;;2.10;99.90;;;;;;5064030;28;20450;-80
2021/12/04 08:00:21;;;;;;;7.97;5.07;;;2.10;99.90;;;;;;5046207;28;20374;-80
2021/12/04 08:02:48;;;;;;;4.03;3.73;;;1.90;99.90;;;;;;5064531;28;20843;-80
2021/12/04 08:05:15;;;;;;;5.87;5.33;;;2.00;99.90;;;;;;5065275;28;20410;-81
2021/12/04 08:07:41;;;;;;;5.73;4.70;;;2.00;99.90;;;;;;5064762;28;20378;-80
2021/12/04 08:10:11;;;;;;;7.77;5.80;;;2.20;99.90;;;;;;5064797;28;20775;-81
2021/12/04 08:12:37;;;;;;;8.17;4.73;;;2.10;99.90;;;;;;5064012;28;20171;-81
2021/12/04 08:15:06;;;;;;;8.57;6.40;;;2.00;99.90;;;;;;5064283;28;20735;-80
2021/12/04 08:17:32;;;;;;;5.53;5.07;;;2.10;99.90;;;;;;5064167;28;20485;-80
2021/12/04 08:19:58;;;;;;;6.77;4.63;;;2.10;99.90;;;;;;5063753;28;20458;-80
2021/12/04 08:22:24;;;;;;;6.60;5.00;;;2.20;99.90;;;;;;5064616;28;20459;-81
2021/12/04 08:24:49;;;;;;;6.07;4.03;;;2.10;99.90;;;;;;5065318;28;20156;-81
2021/12/04 08:27:17;;;;;;;6.03;4.87;;;1.90;99.90;;;;;;5063798;28;20723;-80
2021/12/04 08:29:43;;;;;;;5.00;4.60;;;2.00;99.90;;;;;;5066083;28;20228;-81
2021/12/04 08:32:09;;;;;;;4.37;3.90;;;2.00;99.90;;;;;;5064678;28;20514;-80
2021/12/04 08:34:37;;;;;;;6.90;3.50;;;2.00;99.90;;;;;;5065640;28;20393;-80
2021/12/04 08:37:04;;;;;;;5.50;4.57;;;2.00;99.90;;;;;;5065456;28;20435;-81
2021/12/04 08:39:31;;;;;;;5.53;4.67;;;2.00;99.90;;;;;;5065442;28;20384;-80
2021/12/04 08:41:58;;;;;;;5.27;4.90;;;2.20;99.90;;;;;;5047360;28;20366;-81
2021/12/04 08:44:25;;;;;;;5.13;4.00;;;2.30;99.90;;;;;;5063583;28;20467;-80
2021/12/04 08:46:51;;;;;;;7.30;5.53;;;2.30;99.90;;;;;;5064903;28;20398;-80
2021/12/04 08:49:17;;;;;;;10.27;5.00;;;2.20;99.90;;;;;;5022050;28;20427;-82
2021/12/04 08:51:43;;;;;;;7.43;4.37;;;2.30;99.90;;;;;;5022008;28;20418;-80
2021/12/04 08:54:09;;;;;;;7.10;6.40;;;2.30;99.90;;;;;;5007090;28;20390;-81
2021/12/04 08:56:36;;;;;;;7.03;4.27;;;2.10;99.90;;;;;;5013690;28;20448;-78
2021/12/04 08:59:05;;;;;;;7.87;5.33;;;2.10;99.90;;;;;;4983173;28;20887;-82
2021/12/04 09:01:34;;;;;;;9.40;5.60;;;2.10;99.90;;;;;;5021167;28;20409;-81
2021/12/04 09:04:07;;;;;;;6.97;4.60;;;2.30;99.90;;;;;;5021714;28;20412;-81
2021/12/04 09:06:35;;;;;;;5.43;4.90;;;2.20;99.90;;;;;;5023913;28;20404;-80
2021/12/04 09:09:03;;;;;;;5.47;4.00;;;2.50;99.90;;;;;;5025875;28;20944;-81
2021/12/04 09:11:34;;;;;;;6.77;5.63;;;2.50;99.90;;;;;;5024119;28;20400;-80
2021/12/04 09:14:00;;;;;;;3.87;3.57;;;2.60;99.90;;;;;;5027596;28;20416;-80
2021/12/04 09:16:26;;;;;;;13.33;4.80;;;2.60;99.90;;;;;;4993289;28;21022;-80
2021/12/04 09:18:52;;;;;;;6.93;4.80;;;2.40;99.90;;;;;;5024038;28;20397;-79
2021/12/04 09:21:18;;;;;;;4.07;3.77;;;2.40;99.90;;;;;;5065969;28;20794;-80
2021/12/04 09:23:50;;;;;;;6.93;3.93;;;2.40;99.90;;;;;;5067923;28;20394;-82
2021/12/04 09:26:34;;;;;;;5.03;4.63;;;2.30;99.90;;;;;;5068030;28;20402;-81
2021/12/04 09:29:28;;;;;;;10.27;4.90;;;2.40;99.90;;;;;;5071806;28;20394;-81
2021/12/04 09:32:02;;;;;;;4.73;4.23;;;2.40;99.90;;;;;;5078087;28;20425;-82
2021/12/04 09:34:48;;;;;;;5.53;3.87;;;2.50;99.90;;;;;;5069476;28;20402;-82
2021/12/04 10:01:50;;;;;;;5.17;4.33;;;2.80;99.90;;;;;;5008096;28;20394;-81
2021/12/04 10:15:46;;;;;;;3.53;3.23;;;3.10;99.90;;;;;;4973421;28;20425;-81
2021/12/04 10:18:29;;;;;;;5.17;3.87;;;2.90;99.90;;;;;;5003251;28;20484;-81
2021/12/04 10:34:33;;;;;;;4.53;4.13;;;2.90;99.90;;;;;;5065749;28;20475;-81
2021/12/04 10:37:08;;;;;;;7.00;4.63;;;2.90;99.90;;;;;;5066410;28;20431;-82
2021/12/04 10:39:35;;;;;;;5.53;5.00;;;2.90;99.90;;;;;;5067596;28;20376;-81
2021/12/04 10:42:04;;;;;;;9.33;4.47;;;3.00;99.90;;;;;;5068134;28;20386;-81
2021/12/04 10:44:31;;;;;;;6.17;4.67;;;3.10;99.90;;;;;;5051607;28;20830;-79
2021/12/04 10:47:05;;;;;;;10.03;5.60;;;3.20;99.90;;;;;;5067745;28;20377;-81
2021/12/04 10:49:46;;;;;;;6.30;5.70;;;3.30;99.90;;;;;;5066989;28;20392;-81
2021/12/04 10:55:48;;;;;;;9.27;5.57;;;3.10;99.90;;;;;;5050403;28;20405;-81
2021/12/04 10:58:45;;;;;;;8.90;5.10;;;3.20;99.90;;;;;;5065763;28;20488;-81
2021/12/04 11:01:25;;;;;;;8.23;6.73;;;3.30;99.90;;;;;;5066437;28;20434;-81
2021/12/04 11:03:57;;;;;;;11.63;6.67;;;3.10;99.90;;;;;;5033707;28;20456;-81
2021/12/04 11:06:48;;;;;;;7.20;6.50;;;3.20;99.90;;;;;;5051491;28;20374;-82
2021/12/04 11:26:12;;;;;;;5.60;5.10;;;3.30;99.90;;;;;;5046149;28;20396;-80
2021/12/04 11:35:10;;;;;;;4.80;4.10;;;3.40;99.90;;;;;;5048824;28;20494;-80
2021/12/04 11:45:18;;;;;;;8.03;5.57;;;3.40;99.90;;;;;;5044572;28;20451;-81
2021/12/04 11:47:49;;;;;;;11.10;6.93;;;3.40;99.90;;;;;;5044613;28;20672;-81
2021/12/04 11:50:20;;;;;;;7.73;5.90;;;3.50;99.90;;;;;;5045055;28;20397;-80
2021/12/04 11:52:51;;;;;;;9.47;5.20;;;3.50;99.90;;;;;;5044791;28;20884;-80
2021/12/04 11:55:21;;;;;;;7.63;5.07;;;3.50;99.90;;;;;;5043750;28;20413;-80
2021/12/04 11:57:48;;;;;;;8.13;5.30;;;3.40;99.90;;;;;;5043875;28;20509;-81
2021/12/04 12:00:25;;;;;;;7.67;5.03;;;3.30;99.90;;;;;;5044999;28;20390;-81
2021/12/04 12:03:04;;;;;;;7.53;6.20;;;3.50;99.90;;;;;;5044334;28;20483;-81
2021/12/04 12:05:30;;;;;;;6.70;6.07;;;3.50;99.90;;;;;;5044191;28;20500;-81
2021/12/04 12:07:58;;;;;;;5.80;4.97;;;3.40;99.90;;;;;;5044392;28;20403;-81
2021/12/04 12:10:26;;;;;;;6.17;5.60;;;3.30;99.90;;;;;;5046509;28;20403;-81
2021/12/04 12:13:06;;;;;;;6.83;4.93;;;3.40;99.90;;;;;;5063608;28;20408;-80
2021/12/04 12:15:35;;;;;;;7.30;4.63;;;3.40;99.90;;;;;;5065010;28;20441;-81
2021/12/04 12:18:21;;;;;;;9.23;5.23;;;3.40;99.90;;;;;;5028203;28;20570;-81
2021/12/04 12:20:54;;;;;;;5.97;5.10;;;3.50;99.90;;;;;;5050007;28;20428;-80
2021/12/04 12:23:29;;;;;;;5.70;4.50;;;3.60;99.90;;;;;;5072355;28;20438;-81
2021/12/04 12:37:21;;;;;;;5.60;4.20;;;3.60;99.90;;;;;;5051104;28;20475;-81
2021/12/04 12:39:58;;;;;;;6.20;4.50;;;3.60;99.90;;;;;;5069276;28;20460;-81
2021/12/04 12:42:29;;;;;;;4.60;4.20;;;3.40;99.90;;;;;;5073782;28;20406;-81
2021/12/04 12:45:13;;;;;;;5.23;4.50;;;3.50;99.90;;;;;;5055027;28;20489;-81
2021/12/04 12:47:48;;;;;;;4.57;4.20;;;3.40;99.90;;;;;;5050804;28;20731;-79
2021/12/04 12:50:37;;;;;;;10.33;5.17;;;3.40;99.90;;;;;;5052280;28;20379;-79
2021/12/04 12:53:10;;;;;;;5.67;4.10;;;3.40;99.90;;;;;;5051726;28;20420;-80
2021/12/04 12:55:38;;;;;;;5.50;4.43;;;3.50;99.90;;;;;;5075220;28;20373;-80
2021/12/04 12:58:15;;;;;;;5.97;4.20;;;3.30;99.90;;;;;;5074913;28;20484;-81
2021/12/04 13:11:41;;;;;;;5.43;4.90;;;3.50;99.90;;;;;;5071318;28;20377;-82
2021/12/04 13:14:18;;;;;;;4.70;4.30;;;3.70;99.90;;;;;;5071064;28;20387;-79
2021/12/04 13:16:55;;;;;;;5.83;5.20;;;3.60;99.90;;;;;;5069861;28;20416;-79
2021/12/04 13:19:24;;;;;;;4.23;3.90;;;3.70;99.90;;;;;;4989584;28;20438;-79
2021/12/04 13:21:56;;;;;;;9.13;5.10;;;3.70;99.90;;;;;;4995516;28;20421;-78
2021/12/04 13:24:26;;;;;;;5.00;3.70;;;3.80;99.90;;;;;;4996738;28;20432;-79
2021/12/04 13:26:53;;;;;;;7.13;6.00;;;3.60;99.90;;;;;;5006402;28;20396;-79
2021/12/04 13:29:27;;;;;;;4.97;3.73;;;3.90;99.90;;;;;;4987729;28;20387;-79
2021/12/04 13:31:56;;;;;;;5.73;4.40;;;3.70;99.90;;;;;;5003353;28;20436;-79
2021/12/04 13:34:29;;;;;;;4.83;4.23;;;3.80;99.90;;;;;;5004516;28;20407;-79
2021/12/04 13:36:59;;;;;;;5.13;4.63;;;3.70;99.90;;;;;;4987616;28;20419;-79
2021/12/04 13:39:27;;;;;;;5.60;4.67;;;3.60;99.90;;;;;;4987682;28;20372;-78
2021/12/04 13:41:54;;;;;;;7.03;3.40;;;3.60;99.90;;;;;;4988240;28;20384;-77
2021/12/04 13:44:25;;;;;;;4.97;4.50;;;3.60;99.90;;;;;;5005337;28;20894;-79
2021/12/04 13:46:59;;;;;;;3.80;3.50;;;3.70;99.90;;;;;;4989786;28;20399;-79
2021/12/04 13:49:33;;;;;;;8.33;3.90;;;3.80;99.90;;;;;;5007306;28;20397;-79
2021/12/04 13:52:07;;;;;;;7.87;4.90;;;3.80;99.90;;;;;;4968201;28;20428;-79
2021/12/04 13:54:41;;;;;;;5.73;5.13;;;3.80;99.90;;;;;;4970142;28;20780;-80
2021/12/04 13:57:10;;;;;;;5.63;4.77;;;3.70;99.90;;;;;;4969171;28;20429;-79
2021/12/04 13:59:38;;;;;;;4.37;3.97;;;3.70;99.90;;;;;;4966512;28;20384;-79
2021/12/04 14:02:05;;;;;;;3.87;3.33;;;3.70;99.90;;;;;;4948989;28;20434;-78
2021/12/04 14:04:31;;;;;;;3.43;3.13;;;3.80;99.90;;;;;;5001741;28;20369;-80
2021/12/04 14:07:03;;;;;;;5.20;4.70;;;3.80;99.90;;;;;;5003593;28;20411;-79
2021/12/04 14:09:33;;;;;;;5.27;3.80;;;3.80;99.90;;;;;;5004057;28;20528;-79
2021/12/04 14:12:00;;;;;;;5.20;4.17;;;3.80;99.90;;;;;;4986865;28;20961;-79
2021/12/04 14:14:28;;;;;;;4.77;4.20;;;3.90;99.90;;;;;;4988090;28;20483;-79
2021/12/04 14:17:01;;;;;;;9.70;5.73;;;3.80;99.90;;;;;;5005973;28;20488;-80
2021/12/04 14:19:29;;;;;;;5.37;4.00;;;3.80;99.90;;;;;;4997667;28;20444;-79
2021/12/04 14:21:59;;;;;;;4.23;3.83;;;3.80;99.90;;;;;;4930987;29;20406;-79
2021/12/04 14:24:32;;;;;;;4.37;3.97;;;3.80;99.90;;;;;;4965926;29;20419;-79
2021/12/04 14:27:19;;;;;;;4.63;4.23;;;3.80;99.90;;;;;;4984072;28;20465;-79
2021/12/04 14:29:51;;;;;;;11.40;8.30;;;3.80;99.90;;;;;;4942931;29;20459;-79
2021/12/04 14:32:42;;;;;;;6.33;4.93;;;3.80;99.90;;;;;;4891150;29;20393;-79
2021/12/04 14:35:14;;;;;;;6.57;4.47;;;3.90;99.90;;;;;;4920286;29;20437;-79
2021/12/04 14:37:41;;;;;;;4.70;4.17;;;3.80;99.90;;;;;;4876079;29;20442;-79
2021/12/04 14:40:11;;;;;;;5.60;3.40;;;3.80;99.90;;;;;;4851869;29;20400;-78
2021/12/04 14:42:57;;;;;;;7.50;6.40;;;3.90;99.90;;;;;;4858187;29;20479;-78
2021/12/04 14:45:28;;;;;;;4.93;4.53;;;3.80;99.90;;;;;;4866850;29;20355;-79
2021/12/04 14:48:04;;;;;;;4.80;4.40;;;3.80;99.90;;;;;;4846117;29;20497;-79
2021/12/04 14:50:32;;;;;;;5.10;4.47;;;3.80;99.90;;;;;;4848777;29;20428;-79
2021/12/04 14:53:08;;;;;;;8.00;4.93;;;3.90;99.90;;;;;;4848717;29;20799;-79
2021/12/04 14:55:42;;;;;;;5.10;4.60;;;3.90;99.90;;;;;;4849020;29;20554;-78
2021/12/04 14:58:16;;;;;;;4.80;4.27;;;4.00;99.90;;;;;;4849186;29;20456;-79
2021/12/04 15:00:55;;;;;;;7.27;6.60;;;4.00;99.90;;;;;;4853445;29;20416;-78
2021/12/04 15:03:36;;;;;;;5.67;4.43;;;4.00;99.90;;;;;;4868777;29;20380;-78
2021/12/04 15:06:05;;;;;;;6.80;5.63;;;4.10;99.90;;;;;;4855452;29;20424;-79
2021/12/04 15:08:35;;;;;;;6.50;5.20;;;4.00;99.90;;;;;;4881758;29;20434;-79
2021/12/04 15:11:08;;;;;;;8.37;5.23;;;4.00;99.90;;;;;;4908401;29;20414;-79
2021/12/04 15:13:41;;;;;;;13.00;4.40;;;3.90;99.90;;;;;;4891853;29;20510;-79
2021/12/04 15:16:13;;;;;;;6.67;5.70;;;3.90;99.90;;;;;;4903159;29;20396;-79
2021/12/04 15:18:42;;;;;;;7.97;5.17;;;4.00;99.90;;;;;;4891021;29;20435;-79
2021/12/04 15:21:15;;;;;;;5.90;4.93;;;4.00;99.90;;;;;;4903343;29;20453;-79
2021/12/04 15:23:44;;;;;;;5.60;4.70;;;4.10;99.90;;;;;;4885803;29;20869;-79
2021/12/04 15:26:15;;;;;;;4.43;3.97;;;4.10;99.90;;;;;;4918448;29;20387;-79
2021/12/04 15:28:49;;;;;;;5.83;5.13;;;4.20;99.90;;;;;;4921728;29;20413;-79
2021/12/04 15:31:16;;;;;;;9.10;6.63;;;4.10;99.90;;;;;;4906651;29;20401;-79
2021/12/04 15:33:47;;;;;;;5.07;3.80;;;4.10;99.90;;;;;;4906308;29;20429;-79
2021/12/04 15:36:42;;;;;;;5.80;5.20;;;4.10;99.90;;;;;;4906268;29;20420;-79
2021/12/04 15:39:14;;;;;;;7.63;4.87;;;4.10;99.90;;;;;;4923080;29;20389;-78
2021/12/04 15:47:23;;;;;;;6.50;3.67;;;4.10;99.90;;;;;;4929569;29;20427;-79